createdAt,value
2022-10-26T06:33:01.286Z,7.68
2022-10-26T06:35:40.962Z,7.43
2022-10-26T06:38:17.507Z,7.85
2022-10-26T06:40:53.683Z,7.32
2022-10-26T06:43:32.005Z,7.35
2022-10-26T06:46:17.022Z,7.40
2022-10-26T06:49:15.430Z,6.63
2022-10-26T06:51:57.874Z,7.38
2022-10-26T06:54:47.309Z,8.57
2022-10-26T06:57:16.627Z,8.88
2022-10-26T07:00:00.705Z,7.22
2022-10-26T07:02:41.619Z,7.07
2022-10-26T07:05:13.024Z,6.78
2022-10-26T07:07:51.023Z,8.48
2022-10-26T07:10:21.267Z,8.65
2022-10-26T07:12:57.480Z,8.32
2022-10-26T07:15:26.252Z,7.30
2022-10-26T07:17:55.894Z,7.43
2022-10-26T07:20:26.167Z,8.57
2022-10-26T07:22:57.907Z,7.18
2022-10-26T07:25:30.432Z,9.50
2022-10-26T07:27:59.453Z,7.20
2022-10-26T07:30:30.683Z,6.70
2022-10-26T07:33:07.427Z,7.88
2022-10-26T07:35:38.631Z,7.80
2022-10-26T07:38:16.426Z,6.97
2022-10-26T07:40:46.902Z,8.45
2022-10-26T07:43:22.250Z,8.93
2022-10-26T07:45:55.479Z,8.43
2022-10-26T07:48:28.796Z,7.43
2022-10-26T07:50:56.453Z,6.95
2022-10-26T07:53:27.948Z,10.38
2022-10-26T07:56:00.173Z,7.93
2022-10-26T07:58:28.327Z,8.70
2022-10-26T08:01:08.438Z,11.45
2022-10-26T08:03:44.259Z,11.32
2022-10-26T08:06:16.728Z,13.48
2022-10-26T08:08:47.751Z,9.93
2022-10-26T08:11:21.750Z,12.95
2022-10-26T08:13:53.624Z,9.30
2022-10-26T08:16:31.403Z,9.50
2022-10-26T08:19:04.817Z,8.32
2022-10-26T08:21:39.463Z,9.82
2022-10-26T08:24:13.378Z,8.10
2022-10-26T08:26:44.681Z,12.10
2022-10-26T08:29:17.398Z,9.57
2022-10-26T08:31:50.871Z,9.88
2022-10-26T08:34:29.715Z,8.90
2022-10-26T08:37:06.276Z,10.07
2022-10-26T08:39:41.633Z,9.23
2022-10-26T08:42:20.358Z,9.80
2022-10-26T08:44:58.516Z,7.65
2022-10-26T08:47:34.460Z,8.98
2022-10-26T08:50:15.884Z,8.98
2022-10-26T08:52:52.483Z,8.95
2022-10-26T08:55:28.662Z,11.65
2022-10-26T08:58:12.011Z,9.07
2022-10-26T09:00:41.559Z,9.40
2022-10-26T09:03:18.937Z,8.80
2022-10-26T09:06:13.197Z,7.80
2022-10-26T09:08:59.067Z,8.18
2022-10-26T09:11:53.827Z,8.95
2022-10-26T09:14:36.083Z,11.43
2022-10-26T09:17:23.822Z,9.80
2022-10-26T09:20:26.854Z,9.77
2022-10-26T09:23:34.751Z,7.88
2022-10-26T09:26:13.746Z,7.85
2022-10-26T09:28:46.863Z,9.80
2022-10-26T09:31:17.391Z,9.57
2022-10-26T09:33:47.456Z,9.48
2022-10-26T09:36:21.500Z,8.45
2022-10-26T09:39:05.525Z,9.95
2022-10-26T09:41:38.377Z,7.68
2022-10-26T09:44:17.999Z,8.93
2022-10-26T09:47:36.931Z,11.25
2022-10-26T09:50:34.500Z,8.32
2022-10-26T09:53:05.457Z,9.30
2022-10-26T09:55:35.897Z,9.73
2022-10-26T09:58:07.440Z,9.43
2022-10-26T10:00:39.350Z,9.60
2022-10-26T10:03:20.471Z,9.50
2022-10-26T10:05:53.213Z,8.25
2022-10-26T10:08:27.729Z,8.73
2022-10-26T10:11:11.877Z,8.75
2022-10-26T10:13:47.120Z,8.50
2022-10-26T10:16:25.056Z,7.97
2022-10-26T10:19:00.883Z,8.07
2022-10-26T10:21:43.934Z,9.38
2022-10-26T10:24:33.527Z,7.27
2022-10-26T10:27:13.374Z,9.90
2022-10-26T10:29:50.098Z,8.95
2022-10-26T10:32:27.862Z,8.77
2022-10-26T10:34:59.818Z,10.30
2022-10-26T10:37:47.425Z,7.88
2022-10-26T10:40:27.873Z,15.63
2022-10-26T10:43:14.996Z,9.00
2022-10-26T10:46:02.690Z,9.68
2022-10-26T10:48:35.840Z,9.80
2022-10-26T10:51:18.664Z,9.50
2022-10-26T10:53:49.303Z,10.35
2022-10-26T10:56:34.962Z,11.02
2022-10-26T10:59:17.563Z,11.23
2022-10-26T11:01:54.378Z,10.88
2022-10-26T11:04:34.151Z,9.25
2022-10-26T11:07:08.012Z,9.73
2022-10-26T11:09:41.962Z,11.55
2022-10-26T11:12:29.705Z,10.30
2022-10-26T11:15:06.201Z,12.25
2022-10-26T11:18:05.221Z,11.55
2022-10-26T11:20:36.396Z,11.25
2022-10-26T11:23:13.128Z,10.75
2022-10-26T11:25:50.331Z,11.93
2022-10-26T11:28:59.328Z,10.82
2022-10-26T11:31:35.946Z,8.10
2022-10-26T11:34:17.520Z,12.05
2022-10-26T11:36:53.020Z,11.02
2022-10-26T11:39:41.214Z,11.30
2022-10-26T11:42:21.216Z,9.35
2022-10-26T11:45:04.635Z,12.90
2022-10-26T11:47:48.796Z,9.98
2022-10-26T11:50:25.894Z,11.02
2022-10-26T11:52:59.900Z,10.00
2022-10-26T11:55:34.056Z,11.80
2022-10-26T11:58:03.186Z,10.20
2022-10-26T12:00:33.182Z,12.88
2022-10-26T12:03:23.923Z,10.50
2022-10-26T12:05:52.187Z,11.32
2022-10-26T12:08:36.893Z,11.30
2022-10-26T12:11:34.774Z,10.85
2022-10-26T12:14:20.337Z,9.93
2022-10-26T12:16:54.962Z,11.25
2022-10-26T12:19:35.825Z,12.23
2022-10-26T12:22:12.176Z,13.13
2022-10-26T12:24:50.280Z,10.93
2022-10-26T12:27:52.322Z,10.50
2022-10-26T12:30:30.053Z,11.95
2022-10-26T12:33:03.982Z,10.88
2022-10-26T12:35:39.109Z,14.00
2022-10-26T12:38:33.634Z,10.88
2022-10-26T12:41:04.477Z,11.88
2022-10-26T12:43:33.252Z,12.52
2022-10-26T12:46:13.026Z,11.65
2022-10-26T12:48:46.751Z,12.27
2022-10-26T12:51:25.718Z,12.60
2022-10-26T12:54:34.617Z,10.38
2022-10-26T12:57:10.421Z,12.65
2022-10-26T13:02:46.150Z,10.95
2022-10-26T13:05:29.627Z,10.13
2022-10-26T13:08:07.838Z,9.70
2022-10-26T13:10:38.557Z,10.63
2022-10-26T13:13:08.445Z,10.98
2022-10-26T13:15:41.702Z,9.45
2022-10-26T13:18:18.309Z,9.73
2022-10-26T13:20:52.199Z,8.85
2022-10-26T13:23:32.088Z,11.95
2022-10-26T13:26:13.185Z,9.63
2022-10-26T13:28:43.899Z,10.02
2022-10-26T13:31:20.398Z,10.68
2022-10-26T13:33:51.804Z,9.98
2022-10-26T13:36:32.289Z,9.38
2022-10-26T13:39:06.377Z,8.25
2022-10-26T13:41:39.667Z,7.75
2022-10-26T13:44:17.900Z,9.38
2022-10-26T13:46:49.410Z,8.98
2022-10-26T13:49:28.063Z,7.85
2022-10-26T13:52:01.976Z,9.02
2022-10-26T13:55:00.236Z,8.98
2022-10-26T13:57:43.865Z,10.15
2022-10-26T14:02:58.909Z,9.18
2022-10-26T14:05:32.703Z,8.52
2022-10-26T14:08:07.285Z,8.23
2022-10-26T14:10:43.029Z,10.55
2022-10-26T14:13:16.823Z,8.77
2022-10-26T14:15:50.702Z,8.55
2022-10-26T14:18:35.442Z,8.75
2022-10-26T14:21:17.051Z,11.85
2022-10-26T14:23:56.546Z,7.85
2022-10-26T14:26:39.470Z,9.07
2022-10-26T14:29:22.122Z,8.55
2022-10-26T14:31:58.155Z,9.15
2022-10-26T14:34:33.546Z,9.23
2022-10-26T14:37:05.075Z,8.38
2022-10-26T14:39:41.071Z,10.60
2022-10-26T14:42:28.756Z,10.82
2022-10-26T14:45:02.797Z,9.10
2022-10-26T14:47:33.578Z,9.30
2022-10-26T14:50:09.995Z,9.85
2022-10-26T14:52:41.121Z,10.38
2022-10-26T14:55:14.952Z,9.38
2022-10-26T14:57:48.699Z,10.15
2022-10-26T15:00:25.648Z,10.65
2022-10-26T15:02:58.335Z,11.77
2022-10-26T15:05:35.764Z,11.75
2022-10-26T15:08:38.919Z,12.48
2022-10-26T15:13:53.966Z,15.73
2022-10-26T15:16:28.446Z,12.75
2022-10-26T15:19:24.571Z,11.68
2022-10-26T15:21:53.878Z,12.15
2022-10-26T15:24:28.051Z,13.45
2022-10-26T15:26:56.646Z,13.30
2022-10-26T15:29:35.190Z,13.25
2022-10-26T15:32:37.637Z,12.43
2022-10-26T15:35:11.406Z,15.23
2022-10-26T15:37:40.433Z,13.85
2022-10-26T15:40:14.441Z,16.20
2022-10-26T15:42:45.526Z,13.07
2022-10-26T15:45:29.523Z,11.55
2022-10-26T15:48:02.416Z,12.82
2022-10-26T15:50:30.910Z,12.95
2022-10-26T15:53:15.323Z,11.10
2022-10-26T15:55:46.980Z,11.68
2022-10-26T15:58:16.422Z,14.90
2022-10-26T16:00:48.913Z,11.27
2022-10-26T16:03:25.236Z,15.70
2022-10-26T16:06:01.521Z,12.57
2022-10-26T16:08:32.672Z,16.17
2022-10-26T16:11:01.119Z,14.65
2022-10-26T16:13:30.942Z,12.48
2022-10-26T16:15:59.293Z,15.65
2022-10-26T16:18:28.176Z,13.60
2022-10-26T16:20:56.973Z,15.82
2022-10-26T16:23:25.399Z,15.27
2022-10-26T16:25:53.663Z,14.52
2022-10-26T16:28:22.697Z,15.18
2022-10-26T16:30:50.546Z,13.98
2022-10-26T16:33:18.701Z,19.75
2022-10-26T16:35:56.120Z,17.20
2022-10-26T16:38:31.754Z,13.55
2022-10-26T16:41:11.614Z,14.73
2022-10-26T16:43:42.006Z,14.18
2022-10-26T16:46:19.955Z,14.68
2022-10-26T16:48:49.583Z,16.05
2022-10-26T16:51:23.176Z,15.63
2022-10-26T16:53:55.220Z,14.60
2022-10-26T16:56:25.467Z,16.88
2022-10-26T16:58:57.419Z,16.40
2022-10-26T17:01:25.974Z,15.65
2022-10-26T17:03:54.253Z,17.10
2022-10-26T17:06:22.871Z,16.88
2022-10-26T17:08:50.866Z,14.15
2022-10-26T17:11:21.142Z,13.27
2022-10-26T17:13:54.123Z,13.90
2022-10-26T17:16:24.276Z,12.63
2022-10-26T17:18:53.431Z,12.38
2022-10-26T17:21:30.031Z,11.57
2022-10-26T17:24:01.754Z,12.27
2022-10-26T17:26:29.875Z,11.60
2022-10-26T17:28:58.389Z,11.88
2022-10-26T17:31:26.095Z,11.02
2022-10-26T17:33:53.997Z,11.48
2022-10-26T17:36:22.770Z,10.38
2022-10-26T17:38:52.656Z,10.70
2022-10-26T17:41:22.316Z,12.40
2022-10-26T17:43:50.653Z,12.65
2022-10-26T17:46:24.470Z,11.50
2022-10-26T17:48:59.611Z,12.80
2022-10-26T17:51:29.235Z,12.52
2022-10-26T17:53:59.231Z,12.00
2022-10-26T17:56:29.234Z,13.77
2022-10-26T17:58:59.071Z,12.82
2022-10-26T18:01:27.888Z,13.52
2022-10-26T18:03:58.352Z,13.48
2022-10-26T18:06:27.310Z,11.75
2022-10-26T18:08:59.240Z,12.07
2022-10-26T18:11:28.549Z,11.45
2022-10-26T18:13:57.196Z,10.27
2022-10-26T18:16:26.732Z,10.90
2022-10-26T18:19:00.529Z,11.40
2022-10-26T18:21:31.112Z,11.40
2022-10-26T18:23:59.178Z,10.23
2022-10-26T18:26:30.979Z,11.60
2022-10-26T18:29:00.130Z,10.10
2022-10-26T18:31:29.305Z,9.98
2022-10-26T18:33:58.454Z,9.63
2022-10-26T18:36:27.123Z,10.50
2022-10-26T18:38:54.766Z,10.70
2022-10-26T18:41:24.631Z,9.13
2022-10-26T18:43:55.526Z,10.23
2022-10-26T18:46:27.437Z,9.20
2022-10-26T18:48:56.156Z,9.70
2022-10-26T18:51:28.699Z,10.63
2022-10-26T18:53:57.509Z,10.85
2022-10-26T18:56:25.733Z,10.38
2022-10-26T18:58:56.361Z,10.07
2022-10-26T19:01:26.596Z,10.02
2022-10-26T19:04:02.357Z,9.52
2022-10-26T19:06:32.689Z,10.75
2022-10-26T19:09:00.801Z,9.77
2022-10-26T19:11:30.389Z,10.77
2022-10-26T19:13:58.529Z,9.93
2022-10-26T19:19:17.179Z,9.77
2022-10-26T19:21:46.724Z,10.48
2022-10-26T19:24:20.217Z,9.70
2022-10-26T19:29:17.384Z,12.30
2022-10-26T19:31:46.504Z,10.10
2022-10-26T19:34:18.325Z,9.40
2022-10-26T19:36:47.286Z,10.25
2022-10-26T19:39:16.279Z,8.82
2022-10-26T19:41:44.836Z,10.50
2022-10-26T19:44:14.333Z,8.70
2022-10-26T19:46:43.727Z,10.70
2022-10-26T19:49:12.759Z,8.98
2022-10-26T19:51:40.490Z,9.65
2022-10-26T19:54:09.020Z,8.75
2022-10-26T19:56:37.564Z,9.38
2022-10-26T19:59:06.238Z,8.65
2022-10-26T20:01:34.399Z,9.18
2022-10-26T20:04:02.783Z,9.15
2022-10-26T20:06:31.045Z,10.88
2022-10-26T20:08:59.188Z,9.05
2022-10-26T20:11:26.790Z,10.68
2022-10-26T20:13:56.321Z,10.65
2022-10-26T20:16:24.581Z,11.23
2022-10-26T20:18:52.331Z,10.80
2022-10-26T20:21:19.810Z,10.93
2022-10-26T20:23:47.459Z,9.30
2022-10-26T20:26:18.635Z,9.68
2022-10-26T20:28:48.951Z,8.65
2022-10-26T20:31:16.473Z,11.00
2022-10-26T20:33:51.985Z,10.60
2022-10-26T20:36:19.948Z,9.88
2022-10-26T20:38:47.926Z,10.98
2022-10-26T20:41:15.589Z,8.73
2022-10-26T20:43:43.552Z,9.57
2022-10-26T20:46:31.377Z,11.10
2022-10-26T20:48:59.227Z,9.30
2022-10-26T20:52:19.023Z,10.27
2022-10-26T20:54:59.804Z,8.73
2022-10-26T20:57:31.745Z,9.55
2022-10-26T21:00:09.124Z,10.48
2022-10-26T21:02:36.854Z,9.90
2022-10-26T21:05:04.892Z,9.43
2022-10-26T21:07:32.468Z,10.38
2022-10-26T21:09:59.971Z,10.65
2022-10-26T21:12:27.437Z,11.43
2022-10-26T21:14:54.828Z,10.45
2022-10-26T21:17:22.732Z,9.98
2022-10-26T21:19:50.069Z,9.93
2022-10-26T21:22:17.508Z,8.50
2022-10-26T21:24:49.704Z,9.15
2022-10-26T21:27:19.114Z,10.02
2022-10-26T21:29:46.652Z,9.43
2022-10-26T21:32:14.095Z,10.02
2022-10-26T21:34:41.581Z,10.40
2022-10-26T21:37:09.046Z,9.48
2022-10-26T21:39:36.458Z,10.30
2022-10-26T21:42:03.996Z,9.85
2022-10-26T21:44:46.613Z,9.30
2022-10-26T21:47:13.940Z,10.77
2022-10-26T21:52:14.066Z,8.60
2022-10-26T21:54:41.483Z,10.73
2022-10-26T21:57:08.948Z,9.77
2022-10-26T21:59:36.827Z,10.15
2022-10-26T22:02:04.510Z,10.30
2022-10-26T22:04:32.895Z,10.25
2022-10-26T22:07:00.503Z,8.50
2022-10-26T22:09:27.742Z,9.98
2022-10-26T22:11:57.651Z,9.90
2022-10-26T22:14:25.239Z,9.52
2022-10-26T22:16:52.708Z,10.60
2022-10-26T22:19:20.183Z,10.85
2022-10-26T22:21:47.782Z,9.38
2022-10-26T22:24:15.358Z,10.10
2022-10-26T22:26:42.724Z,10.07
2022-10-26T22:29:10.233Z,9.43
2022-10-26T22:31:43.028Z,10.30
2022-10-26T22:34:16.018Z,9.07
2022-10-26T22:36:43.977Z,8.65
2022-10-26T22:39:11.442Z,11.25
2022-10-26T22:41:38.970Z,9.82
2022-10-26T22:44:06.349Z,10.55
2022-10-26T22:46:33.958Z,10.65
2022-10-26T22:49:02.422Z,9.55
2022-10-26T22:51:34.397Z,10.07
2022-10-26T22:54:03.319Z,11.43
2022-10-26T22:56:33.237Z,9.30
2022-10-26T22:59:00.555Z,8.55
2022-10-26T23:01:33.936Z,10.70
2022-10-26T23:04:01.418Z,9.00
2022-10-26T23:06:30.812Z,12.40
2022-10-26T23:08:58.394Z,8.45
2022-10-26T23:11:27.982Z,11.50
2022-10-26T23:14:02.526Z,10.52
2022-10-26T23:16:30.942Z,9.52
2022-10-26T23:18:59.693Z,9.77
2022-10-26T23:21:29.032Z,10.38
2022-10-26T23:23:57.219Z,9.48
2022-10-26T23:26:24.918Z,9.70
2022-10-26T23:28:52.318Z,9.88
2022-10-26T23:31:22.338Z,9.85
2022-10-26T23:33:51.313Z,10.23
2022-10-26T23:36:19.703Z,9.10
2022-10-26T23:38:47.730Z,9.40
2022-10-26T23:41:17.330Z,11.57
2022-10-26T23:43:44.938Z,10.05
2022-10-26T23:46:15.452Z,9.50
2022-10-26T23:48:42.927Z,9.35
2022-10-26T23:51:10.392Z,9.73
2022-10-26T23:53:37.844Z,9.85
2022-10-26T23:56:05.614Z,9.35
2022-10-26T23:58:33.222Z,9.48
